sensor_id;sensor_type;location;lat;lon;timestamp;temperature;humidity
52615;DHT22;38508;53.158;6.614;2022-11-20T00:03:41;3.60;99.40
52615;DHT22;38508;53.158;6.614;2022-11-20T00:06:08;3.60;99.40
52615;DHT22;38508;53.158;6.614;2022-11-20T00:08:34;3.60;99.50
52615;DHT22;38508;53.158;6.614;2022-11-20T00:11:06;3.60;99.50
52615;DHT22;38508;53.158;6.614;2022-11-20T00:13:32;3.60;99.40
52615;DHT22;38508;53.158;6.614;2022-11-20T00:15:58;3.60;99.50
52615;DHT22;38508;53.158;6.614;2022-11-20T00:18:24;3.70;99.50
52615;DHT22;38508;53.158;6.614;2022-11-20T00:20:50;3.70;99.50
52615;DHT22;38508;53.158;6.614;2022-11-20T00:23:15;3.70;99.50
52615;DHT22;38508;53.158;6.614;2022-11-20T00:25:41;3.70;99.50
52615;DHT22;38508;53.158;6.614;2022-11-20T00:28:06;3.60;99.40
52615;DHT22;38508;53.158;6.614;2022-11-20T00:30:32;3.70;99.50
52615;DHT22;38508;53.158;6.614;2022-11-20T00:32:57;3.60;99.40
52615;DHT22;38508;53.158;6.614;2022-11-20T00:35:23;3.60;99.40
52615;DHT22;38508;53.158;6.614;2022-11-20T00:37:48;3.60;99.60
52615;DHT22;38508;53.158;6.614;2022-11-20T00:40:14;3.70;99.50
52615;DHT22;38508;53.158;6.614;2022-11-20T00:42:40;3.70;99.40
52615;DHT22;38508;53.158;6.614;2022-11-20T00:45:05;3.70;99.30
52615;DHT22;38508;53.158;6.614;2022-11-20T00:47:31;3.70;99.50
52615;DHT22;38508;53.158;6.614;2022-11-20T00:49:56;3.80;99.40
52615;DHT22;38508;53.158;6.614;2022-11-20T00:52:22;3.80;99.30
52615;DHT22;38508;53.158;6.614;2022-11-20T00:54:48;3.70;99.30
52615;DHT22;38508;53.158;6.614;2022-11-20T00:57:13;3.70;99.40
52615;DHT22;38508;53.158;6.614;2022-11-20T00:59:39;3.60;99.40
52615;DHT22;38508;53.158;6.614;2022-11-20T01:02:04;3.50;99.10
52615;DHT22;38508;53.158;6.614;2022-11-20T01:04:30;3.30;99.10
52615;DHT22;38508;53.158;6.614;2022-11-20T01:06:55;3.30;99.50
52615;DHT22;38508;53.158;6.614;2022-11-20T01:09:21;3.40;99.60
52615;DHT22;38508;53.158;6.614;2022-11-20T01:11:46;3.60;99.70
52615;DHT22;38508;53.158;6.614;2022-11-20T01:14:13;3.50;99.60
52615;DHT22;38508;53.158;6.614;2022-11-20T01:16:40;3.60;99.60
52615;DHT22;38508;53.158;6.614;2022-11-20T01:19:07;3.60;99.60
52615;DHT22;38508;53.158;6.614;2022-11-20T01:21:36;3.50;99.50
52615;DHT22;38508;53.158;6.614;2022-11-20T01:24:03;3.60;99.50
52615;DHT22;38508;53.158;6.614;2022-11-20T01:26:32;3.50;99.40
52615;DHT22;38508;53.158;6.614;2022-11-20T01:28:58;3.50;99.50
52615;DHT22;38508;53.158;6.614;2022-11-20T01:31:25;3.60;99.50
52615;DHT22;38508;53.158;6.614;2022-11-20T01:33:51;3.50;99.50
52615;DHT22;38508;53.158;6.614;2022-11-20T01:36:18;3.60;99.40
52615;DHT22;38508;53.158;6.614;2022-11-20T01:38:44;3.30;99.30
52615;DHT22;38508;53.158;6.614;2022-11-20T01:41:10;3.30;99.50
52615;DHT22;38508;53.158;6.614;2022-11-20T01:43:36;3.50;99.50
52615;DHT22;38508;53.158;6.614;2022-11-20T01:46:17;3.50;99.50
52615;DHT22;38508;53.158;6.614;2022-11-20T01:48:45;3.50;99.20
52615;DHT22;38508;53.158;6.614;2022-11-20T01:53:57;3.60;99.10
52615;DHT22;38508;53.158;6.614;2022-11-20T01:56:25;3.40;98.80
52615;DHT22;38508;53.158;6.614;2022-11-20T01:58:52;3.40;99.10
52615;DHT22;38508;53.158;6.614;2022-11-20T02:01:19;3.30;98.90
52615;DHT22;38508;53.158;6.614;2022-11-20T02:03:45;3.20;99.40
52615;DHT22;38508;53.158;6.614;2022-11-20T02:06:14;3.30;99.50
52615;DHT22;38508;53.158;6.614;2022-11-20T02:08:42;3.30;99.40
52615;DHT22;38508;53.158;6.614;2022-11-20T02:11:07;3.40;99.50
52615;DHT22;38508;53.158;6.614;2022-11-20T02:13:33;3.50;99.60
52615;DHT22;38508;53.158;6.614;2022-11-20T02:16:13;3.60;99.50
52615;DHT22;38508;53.158;6.614;2022-11-20T02:18:39;3.60;99.40
52615;DHT22;38508;53.158;6.614;2022-11-20T02:21:11;3.40;99.00
52615;DHT22;38508;53.158;6.614;2022-11-20T02:23:39;3.40;99.40
52615;DHT22;38508;53.158;6.614;2022-11-20T02:26:09;3.50;99.40
52615;DHT22;38508;53.158;6.614;2022-11-20T02:28:35;3.60;99.30
52615;DHT22;38508;53.158;6.614;2022-11-20T02:31:01;3.60;99.30
52615;DHT22;38508;53.158;6.614;2022-11-20T02:33:27;3.60;99.30
52615;DHT22;38508;53.158;6.614;2022-11-20T02:35:52;3.70;99.30
52615;DHT22;38508;53.158;6.614;2022-11-20T02:38:18;3.60;99.00
52615;DHT22;38508;53.158;6.614;2022-11-20T02:40:43;3.60;99.20
52615;DHT22;38508;53.158;6.614;2022-11-20T02:43:09;3.70;99.30
52615;DHT22;38508;53.158;6.614;2022-11-20T02:45:35;3.70;99.20
52615;DHT22;38508;53.158;6.614;2022-11-20T02:48:01;3.80;99.20
52615;DHT22;38508;53.158;6.614;2022-11-20T02:50:26;3.80;99.30
52615;DHT22;38508;53.158;6.614;2022-11-20T02:52:52;3.90;99.30
52615;DHT22;38508;53.158;6.614;2022-11-20T02:55:17;3.80;99.30
52615;DHT22;38508;53.158;6.614;2022-11-20T02:57:43;3.80;99.30
52615;DHT22;38508;53.158;6.614;2022-11-20T03:00:09;3.80;99.30
52615;DHT22;38508;53.158;6.614;2022-11-20T03:02:34;3.80;99.30
52615;DHT22;38508;53.158;6.614;2022-11-20T03:05:00;3.90;99.30
52615;DHT22;38508;53.158;6.614;2022-11-20T03:07:26;3.80;99.30
52615;DHT22;38508;53.158;6.614;2022-11-20T03:09:51;3.70;99.30
52615;DHT22;38508;53.158;6.614;2022-11-20T03:12:17;3.70;99.30
52615;DHT22;38508;53.158;6.614;2022-11-20T03:14:42;3.70;99.20
52615;DHT22;38508;53.158;6.614;2022-11-20T03:17:08;3.70;99.40
52615;DHT22;38508;53.158;6.614;2022-11-20T03:19:34;3.80;99.40
52615;DHT22;38508;53.158;6.614;2022-11-20T03:22:00;3.80;99.50
52615;DHT22;38508;53.158;6.614;2022-11-20T03:24:25;3.80;99.30
52615;DHT22;38508;53.158;6.614;2022-11-20T03:26:51;3.80;99.30
52615;DHT22;38508;53.158;6.614;2022-11-20T03:29:17;3.80;99.10
52615;DHT22;38508;53.158;6.614;2022-11-20T03:31:42;3.70;99.00
52615;DHT22;38508;53.158;6.614;2022-11-20T03:34:08;3.70;99.20
52615;DHT22;38508;53.158;6.614;2022-11-20T03:36:34;3.80;99.20
52615;DHT22;38508;53.158;6.614;2022-11-20T03:39:00;3.80;99.20
52615;DHT22;38508;53.158;6.614;2022-11-20T03:41:27;3.90;99.30
52615;DHT22;38508;53.158;6.614;2022-11-20T03:43:54;3.90;99.20
52615;DHT22;38508;53.158;6.614;2022-11-20T03:46:20;3.90;99.30
52615;DHT22;38508;53.158;6.614;2022-11-20T03:48:46;3.90;99.20
52615;DHT22;38508;53.158;6.614;2022-11-20T03:51:15;3.90;99.20
52615;DHT22;38508;53.158;6.614;2022-11-20T03:53:43;3.90;99.20
52615;DHT22;38508;53.158;6.614;2022-11-20T03:56:09;3.90;99.10
52615;DHT22;38508;53.158;6.614;2022-11-20T03:58:35;4.00;99.00
52615;DHT22;38508;53.158;6.614;2022-11-20T04:01:17;3.90;99.10
52615;DHT22;38508;53.158;6.614;2022-11-20T04:03:43;3.90;99.10
52615;DHT22;38508;53.158;6.614;2022-11-20T04:06:10;3.90;99.10
52615;DHT22;38508;53.158;6.614;2022-11-20T04:08:36;3.90;99.10
52615;DHT22;38508;53.158;6.614;2022-11-20T04:11:35;3.80;99.10
52615;DHT22;38508;53.158;6.614;2022-11-20T04:13:54;3.90;99.10
52615;DHT22;38508;53.158;6.614;2022-11-20T04:16:21;3.80;99.10
52615;DHT22;38508;53.158;6.614;2022-11-20T04:18:47;3.90;99.00
52615;DHT22;38508;53.158;6.614;2022-11-20T04:21:12;3.90;99.10
52615;DHT22;38508;53.158;6.614;2022-11-20T04:23:38;3.90;99.00
52615;DHT22;38508;53.158;6.614;2022-11-20T04:26:12;3.90;99.10
52615;DHT22;38508;53.158;6.614;2022-11-20T04:28:39;3.90;99.10
52615;DHT22;38508;53.158;6.614;2022-11-20T04:31:09;3.90;99.10
52615;DHT22;38508;53.158;6.614;2022-11-20T04:33:34;4.00;99.10
52615;DHT22;38508;53.158;6.614;2022-11-20T04:36:01;4.00;99.00
52615;DHT22;38508;53.158;6.614;2022-11-20T04:38:27;3.90;98.90
52615;DHT22;38508;53.158;6.614;2022-11-20T04:40:55;3.90;99.00
52615;DHT22;38508;53.158;6.614;2022-11-20T04:43:21;3.90;98.90
52615;DHT22;38508;53.158;6.614;2022-11-20T04:45:50;4.00;98.90
52615;DHT22;38508;53.158;6.614;2022-11-20T04:48:16;3.90;98.80
52615;DHT22;38508;53.158;6.614;2022-11-20T04:50:41;3.90;98.90
52615;DHT22;38508;53.158;6.614;2022-11-20T04:53:07;3.90;98.80
52615;DHT22;38508;53.158;6.614;2022-11-20T04:55:32;4.00;98.90
52615;DHT22;38508;53.158;6.614;2022-11-20T04:57:58;4.00;98.80
52615;DHT22;38508;53.158;6.614;2022-11-20T05:00:24;4.00;99.00
52615;DHT22;38508;53.158;6.614;2022-11-20T05:02:49;4.00;99.00
52615;DHT22;38508;53.158;6.614;2022-11-20T05:05:15;4.00;98.90
52615;DHT22;38508;53.158;6.614;2022-11-20T05:07:40;4.00;99.00
52615;DHT22;38508;53.158;6.614;2022-11-20T05:10:06;4.00;99.00
52615;DHT22;38508;53.158;6.614;2022-11-20T05:12:31;4.00;98.80
52615;DHT22;38508;53.158;6.614;2022-11-20T05:14:57;4.00;98.80
52615;DHT22;38508;53.158;6.614;2022-11-20T05:17:22;4.00;98.80
52615;DHT22;38508;53.158;6.614;2022-11-20T05:19:48;4.00;98.70
52615;DHT22;38508;53.158;6.614;2022-11-20T05:22:13;3.90;98.70
52615;DHT22;38508;53.158;6.614;2022-11-20T05:24:39;4.00;98.70
52615;DHT22;38508;53.158;6.614;2022-11-20T05:27:04;4.00;98.80
52615;DHT22;38508;53.158;6.614;2022-11-20T05:29:30;4.00;98.90
52615;DHT22;38508;53.158;6.614;2022-11-20T05:31:55;4.00;98.90
52615;DHT22;38508;53.158;6.614;2022-11-20T05:34:21;4.00;98.90
52615;DHT22;38508;53.158;6.614;2022-11-20T05:36:46;3.90;98.70
52615;DHT22;38508;53.158;6.614;2022-11-20T05:39:12;3.90;98.80
52615;DHT22;38508;53.158;6.614;2022-11-20T05:41:38;4.00;98.90
52615;DHT22;38508;53.158;6.614;2022-11-20T05:44:03;4.00;98.90
52615;DHT22;38508;53.158;6.614;2022-11-20T05:46:29;4.00;98.70
52615;DHT22;38508;53.158;6.614;2022-11-20T05:48:55;4.00;98.60
52615;DHT22;38508;53.158;6.614;2022-11-20T05:51:22;4.00;98.60
52615;DHT22;38508;53.158;6.614;2022-11-20T05:53:48;3.90;98.50
52615;DHT22;38508;53.158;6.614;2022-11-20T05:56:14;4.00;98.60
52615;DHT22;38508;53.158;6.614;2022-11-20T05:58:40;4.00;98.50
52615;DHT22;38508;53.158;6.614;2022-11-20T06:01:10;4.00;98.50
52615;DHT22;38508;53.158;6.614;2022-11-20T06:03:36;4.00;98.60
52615;DHT22;38508;53.158;6.614;2022-11-20T06:06:02;4.00;98.50
52615;DHT22;38508;53.158;6.614;2022-11-20T06:08:28;4.00;98.60
52615;DHT22;38508;53.158;6.614;2022-11-20T06:10:54;4.00;98.60
52615;DHT22;38508;53.158;6.614;2022-11-20T06:13:19;4.00;98.50
52615;DHT22;38508;53.158;6.614;2022-11-20T06:15:51;4.00;98.30
52615;DHT22;38508;53.158;6.614;2022-11-20T06:18:17;4.00;98.40
52615;DHT22;38508;53.158;6.614;2022-11-20T06:20:43;3.90;98.20
52615;DHT22;38508;53.158;6.614;2022-11-20T06:23:08;3.90;98.30
52615;DHT22;38508;53.158;6.614;2022-11-20T06:25:37;3.90;98.30
52615;DHT22;38508;53.158;6.614;2022-11-20T06:28:02;3.80;98.00
52615;DHT22;38508;53.158;6.614;2022-11-20T06:30:28;3.90;98.40
52615;DHT22;38508;53.158;6.614;2022-11-20T06:32:53;3.90;98.40
52615;DHT22;38508;53.158;6.614;2022-11-20T06:35:19;4.00;98.50
52615;DHT22;38508;53.158;6.614;2022-11-20T06:37:45;4.00;98.70
52615;DHT22;38508;53.158;6.614;2022-11-20T06:40:10;4.00;98.60
52615;DHT22;38508;53.158;6.614;2022-11-20T06:42:36;4.00;98.60
52615;DHT22;38508;53.158;6.614;2022-11-20T06:45:01;4.00;98.60
52615;DHT22;38508;53.158;6.614;2022-11-20T06:47:27;4.00;98.60
52615;DHT22;38508;53.158;6.614;2022-11-20T06:49:53;4.00;98.70
52615;DHT22;38508;53.158;6.614;2022-11-20T06:52:18;4.00;98.50
52615;DHT22;38508;53.158;6.614;2022-11-20T06:54:44;4.00;98.40
52615;DHT22;38508;53.158;6.614;2022-11-20T06:57:10;4.10;98.50
52615;DHT22;38508;53.158;6.614;2022-11-20T06:59:35;4.00;98.20
52615;DHT22;38508;53.158;6.614;2022-11-20T07:02:01;4.00;98.50
52615;DHT22;38508;53.158;6.614;2022-11-20T07:04:26;4.10;98.60
52615;DHT22;38508;53.158;6.614;2022-11-20T07:06:52;4.10;98.60
52615;DHT22;38508;53.158;6.614;2022-11-20T07:09:17;4.10;98.70
52615;DHT22;38508;53.158;6.614;2022-11-20T07:11:43;4.10;98.60
52615;DHT22;38508;53.158;6.614;2022-11-20T07:14:08;4.10;98.60
52615;DHT22;38508;53.158;6.614;2022-11-20T07:16:34;4.10;98.70
52615;DHT22;38508;53.158;6.614;2022-11-20T07:19:00;4.10;98.60
52615;DHT22;38508;53.158;6.614;2022-11-20T07:21:25;4.10;98.80
52615;DHT22;38508;53.158;6.614;2022-11-20T07:23:51;4.20;98.90
52615;DHT22;38508;53.158;6.614;2022-11-20T07:26:16;4.20;98.80
52615;DHT22;38508;53.158;6.614;2022-11-20T07:28:44;4.20;98.90
52615;DHT22;38508;53.158;6.614;2022-11-20T07:31:09;4.20;98.80
52615;DHT22;38508;53.158;6.614;2022-11-20T07:33:35;4.20;98.70
52615;DHT22;38508;53.158;6.614;2022-11-20T07:36:00;4.20;98.90
52615;DHT22;38508;53.158;6.614;2022-11-20T07:38:26;4.30;99.00
52615;DHT22;38508;53.158;6.614;2022-11-20T07:40:58;4.20;98.90
52615;DHT22;38508;53.158;6.614;2022-11-20T07:43:26;4.20;99.00
52615;DHT22;38508;53.158;6.614;2022-11-20T07:45:54;4.30;98.70
52615;DHT22;38508;53.158;6.614;2022-11-20T07:48:20;4.20;98.30
52615;DHT22;38508;53.158;6.614;2022-11-20T07:50:45;4.20;98.60
52615;DHT22;38508;53.158;6.614;2022-11-20T07:53:11;4.20;98.70
52615;DHT22;38508;53.158;6.614;2022-11-20T07:55:37;4.20;98.60
52615;DHT22;38508;53.158;6.614;2022-11-20T07:58:03;4.30;98.70
52615;DHT22;38508;53.158;6.614;2022-11-20T08:00:29;4.30;98.30
52615;DHT22;38508;53.158;6.614;2022-11-20T08:02:54;4.30;98.00
52615;DHT22;38508;53.158;6.614;2022-11-20T08:05:20;4.10;98.00
52615;DHT22;38508;53.158;6.614;2022-11-20T08:07:45;4.20;98.50
52615;DHT22;38508;53.158;6.614;2022-11-20T08:10:12;4.30;98.70
52615;DHT22;38508;53.158;6.614;2022-11-20T08:12:47;4.40;98.80
52615;DHT22;38508;53.158;6.614;2022-11-20T08:15:31;4.40;98.70
52615;DHT22;38508;53.158;6.614;2022-11-20T08:18:04;4.50;98.80
52615;DHT22;38508;53.158;6.614;2022-11-20T08:20:30;4.50;98.70
52615;DHT22;38508;53.158;6.614;2022-11-20T08:22:59;4.50;98.60
52615;DHT22;38508;53.158;6.614;2022-11-20T08:25:26;4.50;98.70
52615;DHT22;38508;53.158;6.614;2022-11-20T08:27:51;4.60;98.60
52615;DHT22;38508;53.158;6.614;2022-11-20T08:30:17;4.50;98.50
52615;DHT22;38508;53.158;6.614;2022-11-20T08:32:42;4.50;98.90
52615;DHT22;38508;53.158;6.614;2022-11-20T08:35:08;4.50;98.60
52615;DHT22;38508;53.158;6.614;2022-11-20T08:37:33;4.50;98.60
52615;DHT22;38508;53.158;6.614;2022-11-20T08:39:59;4.60;98.70
52615;DHT22;38508;53.158;6.614;2022-11-20T08:42:25;4.70;98.40
52615;DHT22;38508;53.158;6.614;2022-11-20T08:44:50;4.40;97.90
52615;DHT22;38508;53.158;6.614;2022-11-20T08:47:16;4.30;98.40
52615;DHT22;38508;53.158;6.614;2022-11-20T08:49:41;4.30;98.60
52615;DHT22;38508;53.158;6.614;2022-11-20T08:52:07;4.40;98.70
52615;DHT22;38508;53.158;6.614;2022-11-20T08:54:32;4.50;98.80
52615;DHT22;38508;53.158;6.614;2022-11-20T08:56:58;4.50;98.80
52615;DHT22;38508;53.158;6.614;2022-11-20T08:59:23;4.50;98.70
52615;DHT22;38508;53.158;6.614;2022-11-20T09:01:49;4.50;98.80
52615;DHT22;38508;53.158;6.614;2022-11-20T09:04:15;4.60;98.80
52615;DHT22;38508;53.158;6.614;2022-11-20T09:06:40;4.60;98.70
52615;DHT22;38508;53.158;6.614;2022-11-20T09:09:06;4.60;98.80
52615;DHT22;38508;53.158;6.614;2022-11-20T09:11:32;4.70;98.70
52615;DHT22;38508;53.158;6.614;2022-11-20T09:13:57;4.60;98.40
52615;DHT22;38508;53.158;6.614;2022-11-20T09:16:23;4.70;98.60
52615;DHT22;38508;53.158;6.614;2022-11-20T09:18:49;4.70;98.60
52615;DHT22;38508;53.158;6.614;2022-11-20T09:21:15;4.70;98.50
52615;DHT22;38508;53.158;6.614;2022-11-20T09:23:40;4.70;98.50
52615;DHT22;38508;53.158;6.614;2022-11-20T09:26:15;4.70;98.30
52615;DHT22;38508;53.158;6.614;2022-11-20T09:28:41;4.70;98.30
52615;DHT22;38508;53.158;6.614;2022-11-20T09:31:15;4.70;98.20
52615;DHT22;38508;53.158;6.614;2022-11-20T09:33:42;4.70;98.00
52615;DHT22;38508;53.158;6.614;2022-11-20T09:36:08;4.80;98.10
52615;DHT22;38508;53.158;6.614;2022-11-20T09:38:34;4.80;98.10
52615;DHT22;38508;53.158;6.614;2022-11-20T09:41:03;4.80;97.70
52615;DHT22;38508;53.158;6.614;2022-11-20T09:46:28;4.70;97.10
52615;DHT22;38508;53.158;6.614;2022-11-20T09:51:27;4.50;97.40
52615;DHT22;38508;53.158;6.614;2022-11-20T09:56:21;4.20;97.50
52615;DHT22;38508;53.158;6.614;2022-11-20T09:58:54;4.40;97.60
52615;DHT22;38508;53.158;6.614;2022-11-20T10:01:25;4.40;97.20
52615;DHT22;38508;53.158;6.614;2022-11-20T10:09:34;4.40;97.20
52615;DHT22;38508;53.158;6.614;2022-11-20T10:16:56;4.70;97.20
52615;DHT22;38508;53.158;6.614;2022-11-20T10:24:48;4.60;97.30
52615;DHT22;38508;53.158;6.614;2022-11-20T10:29:46;4.80;97.10
52615;DHT22;38508;53.158;6.614;2022-11-20T10:32:16;4.80;97.20
52615;DHT22;38508;53.158;6.614;2022-11-20T10:34:49;4.90;97.30
52615;DHT22;38508;53.158;6.614;2022-11-20T10:37:17;5.00;97.20
52615;DHT22;38508;53.158;6.614;2022-11-20T10:40:00;4.90;96.50
52615;DHT22;38508;53.158;6.614;2022-11-20T10:42:33;4.90;96.60
52615;DHT22;38508;53.158;6.614;2022-11-20T10:45:44;4.90;96.80
52615;DHT22;38508;53.158;6.614;2022-11-20T10:47:48;4.90;96.90
52615;DHT22;38508;53.158;6.614;2022-11-20T10:50:15;5.00;96.80
52615;DHT22;38508;53.158;6.614;2022-11-20T10:52:48;4.90;96.40
52615;DHT22;38508;53.158;6.614;2022-11-20T11:00:19;5.30;96.70
52615;DHT22;38508;53.158;6.614;2022-11-20T11:02:47;5.40;96.60
52615;DHT22;38508;53.158;6.614;2022-11-20T11:07:51;5.40;96.40
52615;DHT22;38508;53.158;6.614;2022-11-20T11:10:24;5.40;96.70
52615;DHT22;38508;53.158;6.614;2022-11-20T11:12:51;5.50;96.60
52615;DHT22;38508;53.158;6.614;2022-11-20T11:15:30;5.60;96.40
52615;DHT22;38508;53.158;6.614;2022-11-20T11:20:15;5.40;95.80
52615;DHT22;38508;53.158;6.614;2022-11-20T11:23:02;5.50;96.20
52615;DHT22;38508;53.158;6.614;2022-11-20T11:25:35;5.50;96.10
52615;DHT22;38508;53.158;6.614;2022-11-20T11:30:44;5.60;96.30
52615;DHT22;38508;53.158;6.614;2022-11-20T11:33:18;5.70;96.50
52615;DHT22;38508;53.158;6.614;2022-11-20T11:35:49;5.80;96.60
52615;DHT22;38508;53.158;6.614;2022-11-20T11:38:28;5.90;96.70
52615;DHT22;38508;53.158;6.614;2022-11-20T11:40:56;5.70;96.10
52615;DHT22;38508;53.158;6.614;2022-11-20T11:43:24;5.50;96.10
52615;DHT22;38508;53.158;6.614;2022-11-20T11:46:33;5.40;96.30
52615;DHT22;38508;53.158;6.614;2022-11-20T11:54:16;5.20;96.10
52615;DHT22;38508;53.158;6.614;2022-11-20T11:56:45;5.30;96.10
52615;DHT22;38508;53.158;6.614;2022-11-20T11:59:25;5.30;96.10
52615;DHT22;38508;53.158;6.614;2022-11-20T12:01:57;5.50;96.20
52615;DHT22;38508;53.158;6.614;2022-11-20T12:07:39;5.60;95.90
52615;DHT22;38508;53.158;6.614;2022-11-20T12:10:15;5.80;96.00
52615;DHT22;38508;53.158;6.614;2022-11-20T12:12:52;5.60;95.50
52615;DHT22;38508;53.158;6.614;2022-11-20T12:15:26;5.70;95.20
52615;DHT22;38508;53.158;6.614;2022-11-20T12:17:52;5.80;94.70
52615;DHT22;38508;53.158;6.614;2022-11-20T12:20:17;6.20;95.20
52615;DHT22;38508;53.158;6.614;2022-11-20T12:23:01;6.60;94.80
52615;DHT22;38508;53.158;6.614;2022-11-20T12:25:30;6.90;94.10
52615;DHT22;38508;53.158;6.614;2022-11-20T12:28:10;7.20;93.70
52615;DHT22;38508;53.158;6.614;2022-11-20T12:36:57;7.40;92.60
52615;DHT22;38508;53.158;6.614;2022-11-20T12:39:41;7.50;92.10
52615;DHT22;38508;53.158;6.614;2022-11-20T12:45:33;9.40;92.20
52615;DHT22;38508;53.158;6.614;2022-11-20T12:56:50;7.10;91.80
52615;DHT22;38508;53.158;6.614;2022-11-20T12:59:39;7.30;92.30
52615;DHT22;38508;53.158;6.614;2022-11-20T13:05:54;7.00;92.20
52615;DHT22;38508;53.158;6.614;2022-11-20T13:08:34;7.10;92.80
52615;DHT22;38508;53.158;6.614;2022-11-20T13:14:03;7.20;93.20
52615;DHT22;38508;53.158;6.614;2022-11-20T13:16:45;7.00;93.10
52615;DHT22;38508;53.158;6.614;2022-11-20T13:19:15;7.00;93.20
52615;DHT22;38508;53.158;6.614;2022-11-20T13:21:46;7.10;93.00
52615;DHT22;38508;53.158;6.614;2022-11-20T13:29:38;6.90;93.20
52615;DHT22;38508;53.158;6.614;2022-11-20T13:32:17;6.70;92.70
52615;DHT22;38508;53.158;6.614;2022-11-20T13:35:01;6.60;93.00
52615;DHT22;38508;53.158;6.614;2022-11-20T13:37:37;6.50;93.30
52615;DHT22;38508;53.158;6.614;2022-11-20T13:40:19;6.50;93.10
52615;DHT22;38508;53.158;6.614;2022-11-20T13:42:53;6.60;93.70
52615;DHT22;38508;53.158;6.614;2022-11-20T13:45:27;6.60;93.60
52615;DHT22;38508;53.158;6.614;2022-11-20T13:47:53;6.60;93.30
52615;DHT22;38508;53.158;6.614;2022-11-20T13:50:26;6.60;93.40
52615;DHT22;38508;53.158;6.614;2022-11-20T13:53:03;6.70;93.70
52615;DHT22;38508;53.158;6.614;2022-11-20T13:55:37;6.70;93.80
52615;DHT22;38508;53.158;6.614;2022-11-20T14:00:52;6.60;93.80
52615;DHT22;38508;53.158;6.614;2022-11-20T14:03:24;6.50;93.40
52615;DHT22;38508;53.158;6.614;2022-11-20T14:05:56;6.40;93.60
52615;DHT22;38508;53.158;6.614;2022-11-20T14:11:17;6.40;94.30
52615;DHT22;38508;53.158;6.614;2022-11-20T14:14:02;6.30;93.60
52615;DHT22;38508;53.158;6.614;2022-11-20T14:16:32;6.30;93.20
52615;DHT22;38508;53.158;6.614;2022-11-20T14:21:47;6.50;94.00
52615;DHT22;38508;53.158;6.614;2022-11-20T14:24:17;6.50;94.30
52615;DHT22;38508;53.158;6.614;2022-11-20T14:26:44;6.50;94.20
52615;DHT22;38508;53.158;6.614;2022-11-20T14:29:14;6.30;94.60
52615;DHT22;38508;53.158;6.614;2022-11-20T14:31:40;6.20;94.50
52615;DHT22;38508;53.158;6.614;2022-11-20T14:34:16;6.10;94.50
52615;DHT22;38508;53.158;6.614;2022-11-20T14:36:43;6.20;94.80
52615;DHT22;38508;53.158;6.614;2022-11-20T14:39:12;6.10;94.70
52615;DHT22;38508;53.158;6.614;2022-11-20T14:41:51;6.10;94.90
52615;DHT22;38508;53.158;6.614;2022-11-20T14:44:17;6.00;94.90
52615;DHT22;38508;53.158;6.614;2022-11-20T14:46:43;5.90;95.10
52615;DHT22;38508;53.158;6.614;2022-11-20T14:49:10;5.70;94.80
52615;DHT22;38508;53.158;6.614;2022-11-20T14:51:38;5.40;95.10
52615;DHT22;38508;53.158;6.614;2022-11-20T14:54:15;5.30;95.00
52615;DHT22;38508;53.158;6.614;2022-11-20T14:56:42;5.30;95.40
52615;DHT22;38508;53.158;6.614;2022-11-20T14:59:26;5.50;95.10
52615;DHT22;38508;53.158;6.614;2022-11-20T15:01:59;5.40;95.10
52615;DHT22;38508;53.158;6.614;2022-11-20T15:04:25;5.40;95.40
52615;DHT22;38508;53.158;6.614;2022-11-20T15:06:56;5.40;95.30
52615;DHT22;38508;53.158;6.614;2022-11-20T15:09:22;5.30;95.10
52615;DHT22;38508;53.158;6.614;2022-11-20T15:12:06;5.30;95.30
52615;DHT22;38508;53.158;6.614;2022-11-20T15:14:32;5.20;95.60
52615;DHT22;38508;53.158;6.614;2022-11-20T15:17:00;5.20;95.40
52615;DHT22;38508;53.158;6.614;2022-11-20T15:19:26;5.10;95.30
52615;DHT22;38508;53.158;6.614;2022-11-20T15:21:52;5.10;95.40
52615;DHT22;38508;53.158;6.614;2022-11-20T15:24:19;5.00;95.50
52615;DHT22;38508;53.158;6.614;2022-11-20T15:26:45;4.80;95.80
52615;DHT22;38508;53.158;6.614;2022-11-20T15:29:12;4.90;95.80
52615;DHT22;38508;53.158;6.614;2022-11-20T15:31:39;4.80;95.90
52615;DHT22;38508;53.158;6.614;2022-11-20T15:34:14;4.80;96.00
52615;DHT22;38508;53.158;6.614;2022-11-20T15:36:48;4.80;96.10
52615;DHT22;38508;53.158;6.614;2022-11-20T15:39:14;4.90;96.20
52615;DHT22;38508;53.158;6.614;2022-11-20T15:41:40;5.00;96.20
52615;DHT22;38508;53.158;6.614;2022-11-20T15:44:06;5.00;96.20
52615;DHT22;38508;53.158;6.614;2022-11-20T15:46:36;5.00;96.10
52615;DHT22;38508;53.158;6.614;2022-11-20T15:49:05;5.00;96.10
52615;DHT22;38508;53.158;6.614;2022-11-20T15:51:36;4.90;96.00
52615;DHT22;38508;53.158;6.614;2022-11-20T15:54:12;4.80;96.30
52615;DHT22;38508;53.158;6.614;2022-11-20T15:56:38;4.70;96.10
52615;DHT22;38508;53.158;6.614;2022-11-20T15:59:04;4.70;96.20
52615;DHT22;38508;53.158;6.614;2022-11-20T16:01:30;4.60;96.20
52615;DHT22;38508;53.158;6.614;2022-11-20T16:03:56;4.60;96.50
52615;DHT22;38508;53.158;6.614;2022-11-20T16:06:21;4.60;96.30
52615;DHT22;38508;53.158;6.614;2022-11-20T16:08:47;4.60;96.30
52615;DHT22;38508;53.158;6.614;2022-11-20T16:11:15;4.60;96.50
52615;DHT22;38508;53.158;6.614;2022-11-20T16:13:41;4.60;96.40
52615;DHT22;38508;53.158;6.614;2022-11-20T16:16:28;4.50;96.50
52615;DHT22;38508;53.158;6.614;2022-11-20T16:18:56;4.50;96.50
52615;DHT22;38508;53.158;6.614;2022-11-20T16:21:21;4.60;96.50
52615;DHT22;38508;53.158;6.614;2022-11-20T16:23:53;4.60;96.40
52615;DHT22;38508;53.158;6.614;2022-11-20T16:26:19;4.70;96.50
52615;DHT22;38508;53.158;6.614;2022-11-20T16:28:46;4.60;96.60
52615;DHT22;38508;53.158;6.614;2022-11-20T16:31:17;4.70;96.60
52615;DHT22;38508;53.158;6.614;2022-11-20T16:33:44;4.80;96.60
52615;DHT22;38508;53.158;6.614;2022-11-20T16:36:14;4.80;96.10
52615;DHT22;38508;53.158;6.614;2022-11-20T16:38:41;4.70;96.20
52615;DHT22;38508;53.158;6.614;2022-11-20T16:41:07;4.60;96.10
52615;DHT22;38508;53.158;6.614;2022-11-20T16:43:48;4.60;96.30
52615;DHT22;38508;53.158;6.614;2022-11-20T16:46:15;4.70;96.40
52615;DHT22;38508;53.158;6.614;2022-11-20T16:48:41;4.70;96.40
52615;DHT22;38508;53.158;6.614;2022-11-20T16:51:11;4.80;96.30
52615;DHT22;38508;53.158;6.614;2022-11-20T16:53:37;4.70;96.30
52615;DHT22;38508;53.158;6.614;2022-11-20T16:56:14;4.50;96.30
52615;DHT22;38508;53.158;6.614;2022-11-20T16:58:42;4.50;96.30
52615;DHT22;38508;53.158;6.614;2022-11-20T17:01:09;4.40;96.40
52615;DHT22;38508;53.158;6.614;2022-11-20T17:03:42;4.50;96.50
52615;DHT22;38508;53.158;6.614;2022-11-20T17:06:17;4.40;96.40
52615;DHT22;38508;53.158;6.614;2022-11-20T17:08:44;4.40;96.50
52615;DHT22;38508;53.158;6.614;2022-11-20T17:11:12;4.30;96.40
52615;DHT22;38508;53.158;6.614;2022-11-20T17:13:38;4.40;96.60
52615;DHT22;38508;53.158;6.614;2022-11-20T17:16:06;4.60;96.60
52615;DHT22;38508;53.158;6.614;2022-11-20T17:18:33;4.60;96.30
52615;DHT22;38508;53.158;6.614;2022-11-20T17:20:59;4.50;96.20
52615;DHT22;38508;53.158;6.614;2022-11-20T17:23:30;4.50;96.50